createdAt,value
2024-05-09T00:00:52.738Z,70.05
2024-05-09T00:06:15.656Z,70.75
2024-05-09T00:11:20.310Z,71.61
2024-05-09T00:16:23.211Z,72.55
2024-05-09T00:21:25.836Z,73.51
2024-05-09T00:26:28.641Z,71.96
2024-05-09T00:31:31.375Z,71.17
2024-05-09T00:36:34.048Z,71.96
2024-05-09T00:41:36.960Z,72.83
2024-05-09T00:46:39.968Z,73.21
2024-05-09T00:51:42.910Z,72.55
2024-05-09T00:56:46.731Z,72.78
2024-05-09T01:01:49.883Z,71.91
2024-05-09T01:06:52.706Z,71.88
2024-05-09T01:11:55.475Z,71.81
2024-05-09T01:16:58.300Z,71.89
2024-05-09T01:22:01.244Z,72.50
2024-05-09T01:27:04.302Z,72.89
2024-05-09T01:32:07.319Z,73.08
2024-05-09T01:37:10.177Z,73.01
2024-05-09T01:42:13.211Z,72.67
2024-05-09T01:47:16.072Z,72.28
2024-05-09T01:52:18.721Z,72.90
2024-05-09T01:57:21.725Z,73.17
2024-05-09T02:02:24.541Z,73.20
2024-05-09T02:07:27.371Z,72.96
2024-05-09T02:12:30.085Z,72.70
2024-05-09T02:17:33.068Z,73.75
2024-05-09T02:22:35.981Z,74.39
2024-05-09T02:27:38.651Z,74.23
2024-05-09T02:32:41.690Z,74.13
2024-05-09T02:37:44.719Z,74.65
2024-05-09T02:42:47.630Z,74.82
2024-05-09T02:47:50.567Z,75.96
2024-05-09T02:52:53.543Z,76.73
2024-05-09T02:57:56.258Z,76.25
2024-05-09T03:02:59.444Z,76.06
2024-05-09T03:08:02.523Z,76.63
2024-05-09T03:13:07.712Z,76.64
2024-05-09T03:18:11.369Z,76.09
2024-05-09T03:23:14.690Z,75.00
2024-05-09T03:28:17.354Z,75.63
2024-05-09T03:33:20.870Z,76.10
2024-05-09T03:38:24.116Z,76.25
2024-05-09T03:43:26.888Z,76.07
2024-05-09T03:48:29.738Z,75.73
2024-05-09T03:53:32.777Z,75.68
2024-05-09T03:58:35.593Z,76.24
2024-05-09T04:03:39.452Z,77.22
2024-05-09T04:08:42.493Z,76.58
2024-05-09T04:13:45.427Z,77.43
2024-05-09T04:18:48.492Z,78.52
2024-05-09T04:23:51.429Z,78.98
2024-05-09T04:28:54.104Z,79.14
2024-05-09T04:33:57.051Z,79.75
2024-05-09T04:39:00.133Z,80.33
2024-05-09T04:44:03.110Z,79.82
2024-05-09T04:49:06.139Z,80.82
2024-05-09T04:54:15.611Z,80.86
2024-05-09T04:59:24.731Z,80.14
2024-05-09T05:04:28.095Z,80.13
2024-05-09T05:09:31.082Z,80.89
2024-05-09T05:14:33.900Z,80.04
2024-05-09T05:19:36.629Z,79.36
2024-05-09T05:24:39.430Z,78.61
2024-05-09T05:29:42.214Z,77.96
2024-05-09T05:34:45.037Z,77.03
2024-05-09T05:39:47.856Z,77.50
2024-05-09T05:44:50.655Z,76.97
2024-05-09T05:49:53.426Z,77.58
2024-05-09T05:54:56.082Z,76.30
2024-05-09T05:59:58.844Z,75.37
2024-05-09T06:05:03.032Z,76.74
2024-05-09T06:10:11.450Z,76.50
2024-05-09T06:15:17.006Z,75.10
2024-05-09T06:20:27.797Z,75.82
2024-05-09T06:25:38.387Z,75.99
2024-05-09T06:30:42.682Z,72.00
2024-05-09T06:35:46.489Z,73.40
2024-05-09T06:40:49.572Z,73.25
2024-05-09T06:45:53.030Z,72.89
2024-05-09T06:50:56.020Z,71.04
2024-05-09T06:55:58.866Z,72.43
2024-05-09T07:01:01.765Z,72.62
2024-05-09T07:06:04.944Z,72.53
2024-05-09T07:11:07.991Z,72.11
2024-05-09T07:16:10.772Z,68.78
2024-05-09T07:21:13.746Z,65.71
2024-05-09T07:26:17.787Z,63.36
2024-05-09T07:31:20.592Z,61.28
2024-05-09T07:36:23.419Z,65.75
2024-05-09T07:41:26.222Z,62.38
2024-05-09T07:47:36.846Z,54.11
2024-05-09T07:53:20.924Z,60.14
2024-05-09T07:57:14.693Z,51.78
2024-05-09T08:02:17.650Z,51.31
2024-05-09T08:07:20.920Z,43.92
2024-05-09T08:12:23.577Z,42.52
2024-05-09T08:17:26.383Z,45.65
2024-05-09T08:22:32.029Z,44.63
2024-05-09T08:27:34.762Z,45.81
2024-05-09T08:32:40.411Z,48.65
2024-05-09T08:37:43.616Z,50.46
2024-05-09T08:42:52.575Z,52.28
2024-05-09T08:47:59.363Z,48.87
2024-05-09T08:53:02.277Z,52.78
2024-05-09T08:58:07.301Z,52.10
2024-05-09T09:03:16.535Z,52.63
2024-05-09T09:08:20.492Z,53.46
2024-05-09T09:13:23.489Z,54.24
2024-05-09T09:18:27.948Z,53.24
2024-05-09T09:23:31.041Z,53.60
2024-05-09T09:28:37.454Z,55.86
2024-05-09T09:33:43.707Z,57.62
2024-05-09T09:38:48.316Z,54.44
2024-05-09T09:43:53.364Z,52.03
2024-05-09T09:48:56.616Z,51.28
2024-05-09T09:54:02.165Z,50.87
2024-05-09T09:59:07.429Z,50.33
2024-05-09T10:04:12.740Z,50.24
2024-05-09T10:09:18.139Z,46.01
2024-05-09T10:14:21.955Z,47.10
2024-05-09T10:19:28.493Z,48.64
2024-05-09T10:25:05.793Z,49.99
2024-05-09T10:30:14.620Z,48.90
2024-05-09T10:35:26.596Z,46.71
2024-05-09T10:40:32.026Z,43.10
2024-05-09T10:45:52.392Z,42.24
2024-05-09T10:51:38.598Z,44.31
2024-05-09T10:56:45.319Z,39.53
2024-05-09T11:01:50.764Z,38.59
2024-05-09T11:12:52.169Z,38.35
2024-05-09T11:18:26.073Z,38.34
2024-05-09T11:23:30.795Z,38.10
2024-05-09T11:28:35.557Z,38.01
2024-05-09T11:33:47.517Z,39.13
2024-05-09T11:38:54.504Z,39.01
2024-05-09T11:44:00.162Z,38.49
2024-05-09T11:49:03.402Z,40.78
2024-05-09T11:54:06.277Z,39.19
2024-05-09T11:59:12.026Z,39.44
2024-05-09T12:04:20.462Z,40.38
2024-05-09T12:09:28.789Z,41.38
2024-05-09T12:14:34.555Z,40.87
2024-05-09T12:20:33.071Z,38.42
2024-05-09T12:26:04.055Z,37.98
2024-05-09T12:31:09.292Z,38.51
2024-05-09T12:36:16.500Z,38.35
2024-05-09T12:46:53.343Z,37.38
2024-05-09T12:52:13.066Z,37.94
2024-05-09T12:57:25.629Z,37.45
2024-05-09T13:02:29.477Z,37.91
2024-05-09T13:07:37.701Z,36.79
2024-05-09T13:12:45.401Z,36.95
2024-05-09T13:17:48.317Z,36.67
2024-05-09T13:22:51.290Z,37.46
2024-05-09T13:28:43.099Z,38.24
2024-05-09T13:34:00.156Z,37.19
2024-05-09T13:39:08.456Z,37.48
2024-05-09T13:44:24.630Z,39.05
2024-05-09T13:49:41.278Z,39.26
2024-05-09T13:55:11.102Z,37.12
2024-05-09T14:00:27.128Z,35.94
2024-05-09T14:05:39.345Z,36.04
2024-05-09T14:10:46.934Z,36.44
2024-05-09T14:15:50.569Z,36.12
2024-05-09T14:20:53.485Z,36.38
2024-05-09T14:25:56.569Z,36.17
2024-05-09T14:31:01.228Z,36.53
2024-05-09T14:36:04.515Z,35.63
2024-05-09T14:41:09.551Z,35.83
2024-05-09T14:46:12.321Z,36.88
2024-05-09T14:51:16.385Z,36.94
2024-05-09T14:56:19.111Z,37.83
2024-05-09T15:01:23.927Z,37.68
2024-05-09T15:06:26.794Z,38.46
2024-05-09T15:11:29.665Z,38.18
2024-05-09T15:16:32.724Z,38.23
2024-05-09T15:21:35.652Z,39.26
2024-05-09T15:26:38.574Z,37.97
2024-05-09T15:31:41.382Z,38.10
2024-05-09T15:36:47.887Z,37.88
2024-05-09T15:41:56.401Z,38.26
2024-05-09T15:46:59.128Z,37.70
2024-05-09T15:52:01.973Z,38.20
2024-05-09T15:57:05.452Z,38.24
2024-05-09T16:02:11.294Z,38.21
2024-05-09T16:07:14.548Z,38.47
2024-05-09T16:12:17.280Z,38.42
2024-05-09T16:17:20.142Z,38.90
2024-05-09T16:22:23.134Z,39.24
2024-05-09T16:27:26.558Z,39.03
2024-05-09T16:32:29.520Z,38.89
2024-05-09T16:37:32.552Z,40.05
2024-05-09T16:42:35.296Z,40.03
2024-05-09T16:47:38.464Z,40.54
2024-05-09T16:52:41.483Z,39.97
2024-05-09T16:57:44.428Z,40.58
2024-05-09T17:02:47.236Z,42.71
2024-05-09T17:07:50.864Z,42.96
2024-05-09T17:12:53.596Z,43.15
2024-05-09T17:17:56.686Z,43.30
2024-05-09T17:22:59.464Z,42.56
2024-05-09T17:28:07.139Z,42.88
2024-05-09T17:33:20.411Z,43.12
2024-05-09T17:38:23.731Z,42.97
2024-05-09T17:43:26.629Z,43.21
2024-05-09T17:48:29.686Z,43.27
2024-05-09T17:53:32.414Z,43.86
2024-05-09T17:58:35.389Z,44.51
2024-05-09T18:03:39.473Z,45.03
2024-05-09T18:08:42.659Z,45.58
2024-05-09T18:13:47.251Z,47.79
2024-05-09T18:18:50.361Z,48.10
2024-05-09T18:23:55.475Z,49.51
2024-05-09T18:29:01.950Z,49.92
2024-05-09T18:34:05.542Z,51.74
2024-05-09T18:39:08.907Z,52.21
2024-05-09T18:44:11.685Z,52.04
2024-05-09T18:49:14.660Z,52.86
2024-05-09T18:54:17.578Z,54.58
2024-05-09T18:59:21.045Z,55.60
2024-05-09T19:04:24.191Z,55.60
2024-05-09T19:09:27.103Z,55.94
2024-05-09T19:14:29.925Z,57.10
2024-05-09T19:19:32.934Z,58.01
2024-05-09T19:24:35.903Z,57.37
2024-05-09T19:29:38.649Z,57.60
2024-05-09T19:34:44.749Z,58.97
2024-05-09T19:39:47.563Z,58.58
2024-05-09T19:44:50.436Z,58.39
2024-05-09T19:49:53.273Z,59.85
2024-05-09T19:54:55.946Z,61.22
2024-05-09T19:59:59.000Z,60.47
2024-05-09T20:05:03.475Z,61.04
2024-05-09T20:10:10.573Z,61.44
2024-05-09T20:15:19.190Z,61.85
2024-05-09T20:20:32.203Z,61.61
2024-05-09T20:25:41.392Z,61.85
2024-05-09T20:30:44.283Z,62.97
2024-05-09T20:35:47.018Z,63.62
2024-05-09T20:40:49.766Z,65.01
2024-05-09T20:45:52.514Z,65.53
2024-05-09T20:50:55.242Z,68.56
2024-05-09T20:55:57.949Z,71.50
2024-05-09T21:01:00.766Z,71.43
2024-05-09T21:06:03.698Z,70.05
2024-05-09T21:11:07.506Z,70.58
2024-05-09T21:16:10.293Z,68.56
2024-05-09T21:21:13.059Z,69.81
2024-05-09T21:26:17.227Z,69.39
2024-05-09T21:31:20.008Z,68.96
2024-05-09T21:36:22.825Z,70.25
2024-05-09T21:41:25.523Z,69.76
2024-05-09T21:46:28.376Z,69.74
2024-05-09T21:51:31.885Z,69.05
2024-05-09T21:56:34.736Z,68.50
2024-05-09T22:01:37.709Z,68.61
2024-05-09T22:06:40.498Z,71.19
2024-05-09T22:11:43.379Z,70.37
2024-05-09T22:16:46.226Z,69.84
2024-05-09T22:21:49.069Z,70.93
2024-05-09T22:26:53.581Z,72.11
2024-05-09T22:31:56.320Z,70.58
2024-05-09T22:36:59.066Z,70.44
2024-05-09T22:42:01.723Z,70.31
2024-05-09T22:47:04.624Z,70.36
2024-05-09T22:52:07.602Z,70.82
2024-05-09T22:57:10.528Z,71.18
2024-05-09T23:02:13.443Z,70.63
2024-05-09T23:07:16.657Z,70.57
2024-05-09T23:12:19.686Z,70.60
2024-05-09T23:17:22.435Z,71.21
2024-05-09T23:22:25.467Z,72.30
2024-05-09T23:27:28.309Z,72.96
2024-05-09T23:32:31.091Z,72.28
2024-05-09T23:37:33.768Z,72.86
2024-05-09T23:42:36.586Z,72.18
2024-05-09T23:47:39.458Z,72.31
2024-05-09T23:52:42.256Z,72.39
2024-05-09T23:57:45.142Z,72.32
